sensor_id;sensor_type;location;lat;lon;timestamp;P1;durP1;ratioP1;P2;durP2;ratioP2
15425;SDS011;7812;50.072;7.036;2022-07-11T00:00:56;2.53;;;1.63;;
15425;SDS011;7812;50.072;7.036;2022-07-11T00:03:21;2.80;;;1.40;;
15425;SDS011;7812;50.072;7.036;2022-07-11T00:05:47;2.93;;;1.50;;
15425;SDS011;7812;50.072;7.036;2022-07-11T00:08:13;3.70;;;1.83;;
15425;SDS011;7812;50.072;7.036;2022-07-11T00:10:38;1.90;;;1.47;;
15425;SDS011;7812;50.072;7.036;2022-07-11T00:13:05;2.37;;;1.53;;
15425;SDS011;7812;50.072;7.036;2022-07-11T00:15:31;2.17;;;1.83;;
15425;SDS011;7812;50.072;7.036;2022-07-11T00:17:56;1.63;;;1.53;;
15425;SDS011;7812;50.072;7.036;2022-07-11T00:20:22;3.20;;;1.63;;
15425;SDS011;7812;50.072;7.036;2022-07-11T00:22:48;2.30;;;1.60;;
15425;SDS011;7812;50.072;7.036;2022-07-11T00:25:14;2.13;;;1.50;;
15425;SDS011;7812;50.072;7.036;2022-07-11T00:27:39;3.17;;;1.57;;
15425;SDS011;7812;50.072;7.036;2022-07-11T00:30:05;1.90;;;1.63;;
15425;SDS011;7812;50.072;7.036;2022-07-11T00:32:32;1.63;;;1.40;;
15425;SDS011;7812;50.072;7.036;2022-07-11T00:34:57;2.27;;;1.47;;
15425;SDS011;7812;50.072;7.036;2022-07-11T00:37:23;2.00;;;1.30;;
15425;SDS011;7812;50.072;7.036;2022-07-11T00:39:49;3.53;;;1.57;;
15425;SDS011;7812;50.072;7.036;2022-07-11T00:42:17;2.90;;;1.87;;
15425;SDS011;7812;50.072;7.036;2022-07-11T00:44:43;2.07;;;1.60;;
15425;SDS011;7812;50.072;7.036;2022-07-11T00:47:09;4.17;;;1.67;;
15425;SDS011;7812;50.072;7.036;2022-07-11T00:49:35;1.77;;;1.30;;
15425;SDS011;7812;50.072;7.036;2022-07-11T00:52:01;2.07;;;1.50;;
15425;SDS011;7812;50.072;7.036;2022-07-11T00:54:27;1.80;;;1.60;;
15425;SDS011;7812;50.072;7.036;2022-07-11T00:56:55;2.10;;;1.60;;
15425;SDS011;7812;50.072;7.036;2022-07-11T00:59:21;1.83;;;1.50;;
15425;SDS011;7812;50.072;7.036;2022-07-11T01:01:47;1.80;;;1.50;;
15425;SDS011;7812;50.072;7.036;2022-07-11T01:04:13;1.60;;;1.50;;
15425;SDS011;7812;50.072;7.036;2022-07-11T01:06:38;2.97;;;1.63;;
15425;SDS011;7812;50.072;7.036;2022-07-11T01:09:04;2.60;;;1.50;;
15425;SDS011;7812;50.072;7.036;2022-07-11T01:11:30;1.73;;;1.30;;
15425;SDS011;7812;50.072;7.036;2022-07-11T01:13:56;2.37;;;1.60;;
15425;SDS011;7812;50.072;7.036;2022-07-11T01:16:22;2.43;;;1.47;;
15425;SDS011;7812;50.072;7.036;2022-07-11T01:18:49;2.47;;;1.80;;
15425;SDS011;7812;50.072;7.036;2022-07-11T01:23:57;1.67;;;1.57;;
15425;SDS011;7812;50.072;7.036;2022-07-11T01:26:24;1.63;;;1.30;;
15425;SDS011;7812;50.072;7.036;2022-07-11T01:28:51;1.80;;;1.50;;
15425;SDS011;7812;50.072;7.036;2022-07-11T01:31:17;2.13;;;1.60;;
15425;SDS011;7812;50.072;7.036;2022-07-11T01:33:44;2.07;;;1.60;;
15425;SDS011;7812;50.072;7.036;2022-07-11T01:36:10;1.40;;;1.30;;
15425;SDS011;7812;50.072;7.036;2022-07-11T01:38:37;1.50;;;1.30;;
15425;SDS011;7812;50.072;7.036;2022-07-11T01:41:03;1.73;;;1.40;;
15425;SDS011;7812;50.072;7.036;2022-07-11T01:43:29;2.13;;;1.50;;
15425;SDS011;7812;50.072;7.036;2022-07-11T01:45:55;2.23;;;1.63;;
15425;SDS011;7812;50.072;7.036;2022-07-11T01:48:21;2.77;;;1.67;;
15425;SDS011;7812;50.072;7.036;2022-07-11T01:50:47;2.47;;;1.63;;
15425;SDS011;7812;50.072;7.036;2022-07-11T01:53:13;2.83;;;1.43;;
15425;SDS011;7812;50.072;7.036;2022-07-11T01:55:39;1.77;;;1.60;;
15425;SDS011;7812;50.072;7.036;2022-07-11T01:58:05;3.07;;;1.87;;
15425;SDS011;7812;50.072;7.036;2022-07-11T02:00:30;3.23;;;1.70;;
15425;SDS011;7812;50.072;7.036;2022-07-11T02:02:56;3.03;;;1.57;;
15425;SDS011;7812;50.072;7.036;2022-07-11T02:05:22;3.17;;;1.47;;
15425;SDS011;7812;50.072;7.036;2022-07-11T02:07:48;3.10;;;1.53;;
15425;SDS011;7812;50.072;7.036;2022-07-11T02:10:32;2.27;;;1.73;;
15425;SDS011;7812;50.072;7.036;2022-07-11T02:12:58;2.17;;;1.53;;
15425;SDS011;7812;50.072;7.036;2022-07-11T02:15:25;2.33;;;1.53;;
15425;SDS011;7812;50.072;7.036;2022-07-11T02:17:51;1.60;;;1.50;;
15425;SDS011;7812;50.072;7.036;2022-07-11T02:20:18;1.67;;;1.40;;
15425;SDS011;7812;50.072;7.036;2022-07-11T02:22:44;1.57;;;1.47;;
15425;SDS011;7812;50.072;7.036;2022-07-11T02:25:10;2.03;;;1.80;;
15425;SDS011;7812;50.072;7.036;2022-07-11T02:27:36;2.40;;;1.90;;
15425;SDS011;7812;50.072;7.036;2022-07-11T02:30:02;2.53;;;2.03;;
15425;SDS011;7812;50.072;7.036;2022-07-11T02:32:28;1.60;;;1.50;;
15425;SDS011;7812;50.072;7.036;2022-07-11T02:34:53;1.80;;;1.43;;
15425;SDS011;7812;50.072;7.036;2022-07-11T02:37:19;1.90;;;1.70;;
15425;SDS011;7812;50.072;7.036;2022-07-11T02:39:45;4.30;;;1.83;;
15425;SDS011;7812;50.072;7.036;2022-07-11T02:42:12;2.30;;;1.70;;
15425;SDS011;7812;50.072;7.036;2022-07-11T02:44:38;2.63;;;1.80;;
15425;SDS011;7812;50.072;7.036;2022-07-11T02:47:04;2.00;;;1.80;;
15425;SDS011;7812;50.072;7.036;2022-07-11T02:49:30;2.47;;;1.60;;
15425;SDS011;7812;50.072;7.036;2022-07-11T02:51:57;3.73;;;1.60;;
15425;SDS011;7812;50.072;7.036;2022-07-11T02:54:23;2.13;;;1.67;;
15425;SDS011;7812;50.072;7.036;2022-07-11T02:56:49;1.60;;;1.43;;
15425;SDS011;7812;50.072;7.036;2022-07-11T02:59:15;1.80;;;1.50;;
15425;SDS011;7812;50.072;7.036;2022-07-11T03:01:40;1.93;;;1.63;;
15425;SDS011;7812;50.072;7.036;2022-07-11T03:04:10;2.57;;;1.50;;
15425;SDS011;7812;50.072;7.036;2022-07-11T03:06:36;3.10;;;1.73;;
15425;SDS011;7812;50.072;7.036;2022-07-11T03:09:03;2.60;;;1.77;;
15425;SDS011;7812;50.072;7.036;2022-07-11T03:11:30;1.50;;;1.40;;
15425;SDS011;7812;50.072;7.036;2022-07-11T03:13:56;2.00;;;1.80;;
15425;SDS011;7812;50.072;7.036;2022-07-11T03:16:22;2.30;;;1.70;;
15425;SDS011;7812;50.072;7.036;2022-07-11T03:18:48;3.17;;;1.73;;
15425;SDS011;7812;50.072;7.036;2022-07-11T03:21:14;2.07;;;1.80;;
15425;SDS011;7812;50.072;7.036;2022-07-11T03:23:40;1.63;;;1.53;;
15425;SDS011;7812;50.072;7.036;2022-07-11T03:26:06;4.50;;;1.90;;
15425;SDS011;7812;50.072;7.036;2022-07-11T03:28:32;2.70;;;1.80;;
15425;SDS011;7812;50.072;7.036;2022-07-11T03:30:57;1.70;;;1.40;;
15425;SDS011;7812;50.072;7.036;2022-07-11T03:33:23;2.43;;;1.60;;
15425;SDS011;7812;50.072;7.036;2022-07-11T03:35:49;2.53;;;1.70;;
15425;SDS011;7812;50.072;7.036;2022-07-11T03:38:17;2.43;;;1.73;;
15425;SDS011;7812;50.072;7.036;2022-07-11T03:40:44;1.70;;;1.60;;
15425;SDS011;7812;50.072;7.036;2022-07-11T03:43:10;2.30;;;1.70;;
15425;SDS011;7812;50.072;7.036;2022-07-11T03:45:36;3.53;;;1.60;;
15425;SDS011;7812;50.072;7.036;2022-07-11T03:48:03;1.83;;;1.60;;
15425;SDS011;7812;50.072;7.036;2022-07-11T03:50:29;2.27;;;1.73;;
15425;SDS011;7812;50.072;7.036;2022-07-11T03:52:55;1.97;;;1.73;;
15425;SDS011;7812;50.072;7.036;2022-07-11T03:55:21;1.80;;;1.63;;
15425;SDS011;7812;50.072;7.036;2022-07-11T03:57:47;2.30;;;2.10;;
15425;SDS011;7812;50.072;7.036;2022-07-11T04:00:13;2.13;;;1.70;;
15425;SDS011;7812;50.072;7.036;2022-07-11T04:02:39;3.03;;;1.50;;
15425;SDS011;7812;50.072;7.036;2022-07-11T04:05:06;2.07;;;1.67;;
15425;SDS011;7812;50.072;7.036;2022-07-11T04:07:32;6.23;;;1.97;;
15425;SDS011;7812;50.072;7.036;2022-07-11T04:09:58;3.30;;;1.83;;
15425;SDS011;7812;50.072;7.036;2022-07-11T04:12:24;2.33;;;1.80;;
15425;SDS011;7812;50.072;7.036;2022-07-11T04:14:49;2.07;;;1.60;;
15425;SDS011;7812;50.072;7.036;2022-07-11T04:17:15;1.73;;;1.63;;
15425;SDS011;7812;50.072;7.036;2022-07-11T04:19:41;1.80;;;1.70;;
15425;SDS011;7812;50.072;7.036;2022-07-11T04:22:10;2.27;;;1.73;;
15425;SDS011;7812;50.072;7.036;2022-07-11T04:24:37;1.83;;;1.50;;
15425;SDS011;7812;50.072;7.036;2022-07-11T04:27:03;2.23;;;2.03;;
15425;SDS011;7812;50.072;7.036;2022-07-11T04:29:29;2.10;;;1.77;;
15425;SDS011;7812;50.072;7.036;2022-07-11T04:31:55;2.00;;;1.67;;
15425;SDS011;7812;50.072;7.036;2022-07-11T04:34:21;2.67;;;1.80;;
15425;SDS011;7812;50.072;7.036;2022-07-11T04:36:47;1.90;;;1.80;;
15425;SDS011;7812;50.072;7.036;2022-07-11T04:39:13;1.87;;;1.63;;
15425;SDS011;7812;50.072;7.036;2022-07-11T04:41:39;2.10;;;1.50;;
15425;SDS011;7812;50.072;7.036;2022-07-11T04:44:04;2.77;;;1.90;;
15425;SDS011;7812;50.072;7.036;2022-07-11T04:46:31;2.23;;;1.33;;
15425;SDS011;7812;50.072;7.036;2022-07-11T04:48:57;1.83;;;1.60;;
15425;SDS011;7812;50.072;7.036;2022-07-11T04:51:23;5.60;;;1.83;;
15425;SDS011;7812;50.072;7.036;2022-07-11T04:53:49;2.27;;;1.53;;
15425;SDS011;7812;50.072;7.036;2022-07-11T04:56:15;1.70;;;1.47;;
15425;SDS011;7812;50.072;7.036;2022-07-11T04:58:41;1.73;;;1.30;;
15425;SDS011;7812;50.072;7.036;2022-07-11T05:01:07;1.90;;;1.60;;
15425;SDS011;7812;50.072;7.036;2022-07-11T05:03:33;2.33;;;2.03;;
15425;SDS011;7812;50.072;7.036;2022-07-11T05:06:00;1.90;;;1.70;;
15425;SDS011;7812;50.072;7.036;2022-07-11T05:08:25;3.00;;;1.70;;
15425;SDS011;7812;50.072;7.036;2022-07-11T05:10:51;2.10;;;1.80;;
15425;SDS011;7812;50.072;7.036;2022-07-11T05:13:17;3.43;;;2.10;;
15425;SDS011;7812;50.072;7.036;2022-07-11T05:15:43;2.70;;;2.10;;
15425;SDS011;7812;50.072;7.036;2022-07-11T05:18:09;2.90;;;2.13;;
15425;SDS011;7812;50.072;7.036;2022-07-11T05:20:36;1.77;;;1.63;;
15425;SDS011;7812;50.072;7.036;2022-07-11T05:23:02;2.07;;;1.60;;
15425;SDS011;7812;50.072;7.036;2022-07-11T05:25:28;2.40;;;1.67;;
15425;SDS011;7812;50.072;7.036;2022-07-11T05:27:54;1.70;;;1.60;;
15425;SDS011;7812;50.072;7.036;2022-07-11T05:30:19;1.90;;;1.80;;
15425;SDS011;7812;50.072;7.036;2022-07-11T05:32:45;1.60;;;1.50;;
15425;SDS011;7812;50.072;7.036;2022-07-11T05:35:11;2.17;;;2.00;;
15425;SDS011;7812;50.072;7.036;2022-07-11T05:37:37;2.73;;;2.03;;
15425;SDS011;7812;50.072;7.036;2022-07-11T05:40:03;2.50;;;1.90;;
15425;SDS011;7812;50.072;7.036;2022-07-11T05:42:30;2.00;;;1.87;;
15425;SDS011;7812;50.072;7.036;2022-07-11T05:44:56;2.07;;;1.63;;
15425;SDS011;7812;50.072;7.036;2022-07-11T05:47:22;1.80;;;1.57;;
15425;SDS011;7812;50.072;7.036;2022-07-11T05:49:48;1.73;;;1.63;;
15425;SDS011;7812;50.072;7.036;2022-07-11T05:52:14;2.00;;;1.83;;
15425;SDS011;7812;50.072;7.036;2022-07-11T05:54:39;2.00;;;1.70;;
15425;SDS011;7812;50.072;7.036;2022-07-11T05:57:05;2.30;;;2.10;;
15425;SDS011;7812;50.072;7.036;2022-07-11T05:59:31;2.63;;;1.73;;
15425;SDS011;7812;50.072;7.036;2022-07-11T06:01:57;2.23;;;1.90;;
15425;SDS011;7812;50.072;7.036;2022-07-11T06:04:23;2.40;;;1.77;;
15425;SDS011;7812;50.072;7.036;2022-07-11T06:06:51;2.90;;;1.80;;
15425;SDS011;7812;50.072;7.036;2022-07-11T06:09:17;2.20;;;2.00;;
15425;SDS011;7812;50.072;7.036;2022-07-11T06:11:43;2.10;;;1.80;;
15425;SDS011;7812;50.072;7.036;2022-07-11T06:14:09;1.63;;;1.53;;
15425;SDS011;7812;50.072;7.036;2022-07-11T06:16:34;1.50;;;1.40;;
15425;SDS011;7812;50.072;7.036;2022-07-11T06:19:00;2.63;;;1.67;;
15425;SDS011;7812;50.072;7.036;2022-07-11T06:21:26;2.40;;;1.60;;
15425;SDS011;7812;50.072;7.036;2022-07-11T06:23:53;2.67;;;1.90;;
15425;SDS011;7812;50.072;7.036;2022-07-11T06:26:22;3.50;;;2.10;;
15425;SDS011;7812;50.072;7.036;2022-07-11T06:28:47;3.03;;;2.07;;
15425;SDS011;7812;50.072;7.036;2022-07-11T06:31:13;2.43;;;1.80;;
15425;SDS011;7812;50.072;7.036;2022-07-11T06:33:41;3.20;;;1.90;;
15425;SDS011;7812;50.072;7.036;2022-07-11T06:36:07;3.97;;;2.00;;
15425;SDS011;7812;50.072;7.036;2022-07-11T06:38:33;2.90;;;2.00;;
15425;SDS011;7812;50.072;7.036;2022-07-11T06:40:59;3.73;;;2.07;;
15425;SDS011;7812;50.072;7.036;2022-07-11T06:43:27;3.57;;;1.80;;
15425;SDS011;7812;50.072;7.036;2022-07-11T06:45:54;4.30;;;2.17;;
15425;SDS011;7812;50.072;7.036;2022-07-11T06:48:19;3.73;;;1.73;;
15425;SDS011;7812;50.072;7.036;2022-07-11T06:50:46;3.47;;;1.80;;
15425;SDS011;7812;50.072;7.036;2022-07-11T06:53:12;5.20;;;2.23;;
15425;SDS011;7812;50.072;7.036;2022-07-11T06:55:38;2.57;;;2.10;;
15425;SDS011;7812;50.072;7.036;2022-07-11T06:58:04;2.27;;;1.80;;
15425;SDS011;7812;50.072;7.036;2022-07-11T07:00:30;6.03;;;2.23;;
15425;SDS011;7812;50.072;7.036;2022-07-11T07:02:57;3.70;;;2.37;;
15425;SDS011;7812;50.072;7.036;2022-07-11T07:05:23;2.67;;;2.00;;
15425;SDS011;7812;50.072;7.036;2022-07-11T07:07:52;2.30;;;2.10;;
15425;SDS011;7812;50.072;7.036;2022-07-11T07:10:18;2.93;;;2.13;;
15425;SDS011;7812;50.072;7.036;2022-07-11T07:12:44;3.57;;;2.30;;
15425;SDS011;7812;50.072;7.036;2022-07-11T07:15:11;2.30;;;1.93;;
15425;SDS011;7812;50.072;7.036;2022-07-11T07:17:37;3.37;;;2.10;;
15425;SDS011;7812;50.072;7.036;2022-07-11T07:20:04;3.40;;;2.53;;
15425;SDS011;7812;50.072;7.036;2022-07-11T07:22:33;3.07;;;2.23;;
15425;SDS011;7812;50.072;7.036;2022-07-11T07:24:59;2.40;;;2.13;;
15425;SDS011;7812;50.072;7.036;2022-07-11T07:27:26;2.83;;;1.83;;
15425;SDS011;7812;50.072;7.036;2022-07-11T07:29:51;3.07;;;2.20;;
15425;SDS011;7812;50.072;7.036;2022-07-11T07:32:18;4.03;;;2.40;;
15425;SDS011;7812;50.072;7.036;2022-07-11T07:34:44;3.07;;;2.77;;
15425;SDS011;7812;50.072;7.036;2022-07-11T07:37:10;3.10;;;2.63;;
15425;SDS011;7812;50.072;7.036;2022-07-11T07:39:35;4.17;;;2.50;;
15425;SDS011;7812;50.072;7.036;2022-07-11T07:42:01;3.40;;;2.67;;
15425;SDS011;7812;50.072;7.036;2022-07-11T07:44:27;4.03;;;3.63;;
15425;SDS011;7812;50.072;7.036;2022-07-11T07:46:53;4.43;;;3.40;;
15425;SDS011;7812;50.072;7.036;2022-07-11T07:49:18;4.93;;;3.27;;
15425;SDS011;7812;50.072;7.036;2022-07-11T07:51:44;3.87;;;3.27;;
15425;SDS011;7812;50.072;7.036;2022-07-11T07:54:10;4.10;;;3.63;;
15425;SDS011;7812;50.072;7.036;2022-07-11T07:56:36;4.33;;;3.17;;
15425;SDS011;7812;50.072;7.036;2022-07-11T07:59:01;5.10;;;3.70;;
15425;SDS011;7812;50.072;7.036;2022-07-11T08:01:27;4.97;;;3.80;;
15425;SDS011;7812;50.072;7.036;2022-07-11T08:04:04;3.57;;;3.27;;
15425;SDS011;7812;50.072;7.036;2022-07-11T08:06:31;3.47;;;3.20;;
15425;SDS011;7812;50.072;7.036;2022-07-11T08:08:57;6.27;;;3.37;;
15425;SDS011;7812;50.072;7.036;2022-07-11T08:11:26;5.77;;;3.53;;
15425;SDS011;7812;50.072;7.036;2022-07-11T08:13:51;5.17;;;3.30;;
15425;SDS011;7812;50.072;7.036;2022-07-11T08:16:18;4.10;;;3.57;;
15425;SDS011;7812;50.072;7.036;2022-07-11T08:18:45;3.83;;;3.47;;
15425;SDS011;7812;50.072;7.036;2022-07-11T08:21:10;3.87;;;3.30;;
15425;SDS011;7812;50.072;7.036;2022-07-11T08:23:36;3.80;;;3.17;;
15425;SDS011;7812;50.072;7.036;2022-07-11T08:26:02;4.03;;;3.03;;
15425;SDS011;7812;50.072;7.036;2022-07-11T08:28:28;4.53;;;3.47;;
15425;SDS011;7812;50.072;7.036;2022-07-11T08:30:54;3.27;;;2.97;;
15425;SDS011;7812;50.072;7.036;2022-07-11T08:33:20;3.53;;;3.23;;
15425;SDS011;7812;50.072;7.036;2022-07-11T08:35:45;3.30;;;3.00;;
15425;SDS011;7812;50.072;7.036;2022-07-11T08:38:11;3.47;;;2.97;;
15425;SDS011;7812;50.072;7.036;2022-07-11T08:40:41;5.27;;;3.70;;
15425;SDS011;7812;50.072;7.036;2022-07-11T08:43:14;4.83;;;4.03;;
15425;SDS011;7812;50.072;7.036;2022-07-11T08:45:41;4.13;;;3.70;;
15425;SDS011;7812;50.072;7.036;2022-07-11T08:48:07;3.60;;;3.30;;
15425;SDS011;7812;50.072;7.036;2022-07-11T08:50:36;4.57;;;3.97;;
15425;SDS011;7812;50.072;7.036;2022-07-11T08:53:05;4.57;;;4.13;;
15425;SDS011;7812;50.072;7.036;2022-07-11T08:55:31;4.53;;;4.07;;
15425;SDS011;7812;50.072;7.036;2022-07-11T08:57:57;4.87;;;4.40;;
15425;SDS011;7812;50.072;7.036;2022-07-11T09:00:42;6.43;;;4.37;;
15425;SDS011;7812;50.072;7.036;2022-07-11T09:03:10;7.57;;;4.33;;
15425;SDS011;7812;50.072;7.036;2022-07-11T09:05:39;4.17;;;3.77;;
15425;SDS011;7812;50.072;7.036;2022-07-11T09:08:05;4.93;;;4.43;;
15425;SDS011;7812;50.072;7.036;2022-07-11T09:10:31;4.33;;;3.70;;
15425;SDS011;7812;50.072;7.036;2022-07-11T09:13:04;3.83;;;3.43;;
15425;SDS011;7812;50.072;7.036;2022-07-11T09:15:44;4.23;;;3.90;;
15425;SDS011;7812;50.072;7.036;2022-07-11T09:20:53;3.50;;;3.20;;
15425;SDS011;7812;50.072;7.036;2022-07-11T09:23:40;3.50;;;3.20;;
15425;SDS011;7812;50.072;7.036;2022-07-11T09:26:28;3.43;;;3.13;;
15425;SDS011;7812;50.072;7.036;2022-07-11T09:28:59;3.70;;;3.40;;
15425;SDS011;7812;50.072;7.036;2022-07-11T09:31:34;4.50;;;4.10;;
15425;SDS011;7812;50.072;7.036;2022-07-11T09:39:14;4.50;;;4.10;;
15425;SDS011;7812;50.072;7.036;2022-07-11T09:41:41;4.20;;;3.80;;
15425;SDS011;7812;50.072;7.036;2022-07-11T09:44:08;4.30;;;3.90;;
15425;SDS011;7812;50.072;7.036;2022-07-11T09:46:37;4.87;;;4.47;;
15425;SDS011;7812;50.072;7.036;2022-07-11T09:49:07;4.87;;;4.47;;
15425;SDS011;7812;50.072;7.036;2022-07-11T09:51:36;5.27;;;4.83;;
15425;SDS011;7812;50.072;7.036;2022-07-11T09:54:03;4.70;;;4.30;;
15425;SDS011;7812;50.072;7.036;2022-07-11T09:56:33;5.27;;;4.87;;
15425;SDS011;7812;50.072;7.036;2022-07-11T09:59:09;5.40;;;4.90;;
15425;SDS011;7812;50.072;7.036;2022-07-11T10:01:36;6.50;;;5.60;;
15425;SDS011;7812;50.072;7.036;2022-07-11T10:04:06;9.17;;;5.87;;
15425;SDS011;7812;50.072;7.036;2022-07-11T10:06:33;6.13;;;5.40;;
15425;SDS011;7812;50.072;7.036;2022-07-11T10:09:01;6.73;;;6.03;;
15425;SDS011;7812;50.072;7.036;2022-07-11T10:11:29;6.23;;;5.63;;
15425;SDS011;7812;50.072;7.036;2022-07-11T10:13:58;6.23;;;5.63;;
15425;SDS011;7812;50.072;7.036;2022-07-11T10:19:32;6.97;;;6.27;;
15425;SDS011;7812;50.072;7.036;2022-07-11T10:27:38;6.87;;;6.17;;
15425;SDS011;7812;50.072;7.036;2022-07-11T10:30:42;7.23;;;6.53;;
15425;SDS011;7812;50.072;7.036;2022-07-11T10:33:13;7.47;;;6.80;;
15425;SDS011;7812;50.072;7.036;2022-07-11T10:35:40;7.50;;;6.60;;
15425;SDS011;7812;50.072;7.036;2022-07-11T10:38:07;6.90;;;6.20;;
15425;SDS011;7812;50.072;7.036;2022-07-11T10:46:02;7.27;;;6.57;;
15425;SDS011;7812;50.072;7.036;2022-07-11T10:48:29;6.90;;;6.20;;
15425;SDS011;7812;50.072;7.036;2022-07-11T10:51:10;5.83;;;5.33;;
15425;SDS011;7812;50.072;7.036;2022-07-11T10:53:48;6.00;;;5.40;;
15425;SDS011;7812;50.072;7.036;2022-07-11T10:56:34;6.63;;;5.83;;
15425;SDS011;7812;50.072;7.036;2022-07-11T10:59:16;6.90;;;6.20;;
15425;SDS011;7812;50.072;7.036;2022-07-11T11:04:41;6.40;;;5.80;;
15425;SDS011;7812;50.072;7.036;2022-07-11T11:07:26;6.30;;;5.70;;
15425;SDS011;7812;50.072;7.036;2022-07-11T11:09:55;6.87;;;5.87;;
15425;SDS011;7812;50.072;7.036;2022-07-11T11:26:07;4.80;;;3.40;;
15425;SDS011;7812;50.072;7.036;2022-07-11T11:28:38;3.80;;;3.40;;
15425;SDS011;7812;50.072;7.036;2022-07-11T11:31:19;3.40;;;3.10;;
15425;SDS011;7812;50.072;7.036;2022-07-11T11:33:45;2.90;;;2.70;;
15425;SDS011;7812;50.072;7.036;2022-07-11T11:36:15;4.07;;;3.67;;
15425;SDS011;7812;50.072;7.036;2022-07-11T11:38:42;3.53;;;2.90;;
15425;SDS011;7812;50.072;7.036;2022-07-11T11:41:08;3.37;;;3.07;;
15425;SDS011;7812;50.072;7.036;2022-07-11T11:43:35;3.57;;;2.97;;
15425;SDS011;7812;50.072;7.036;2022-07-11T11:46:02;3.57;;;3.23;;
15425;SDS011;7812;50.072;7.036;2022-07-11T11:48:28;3.50;;;3.20;;
15425;SDS011;7812;50.072;7.036;2022-07-11T11:51:08;3.33;;;3.03;;
15425;SDS011;7812;50.072;7.036;2022-07-11T11:53:38;2.87;;;2.67;;
15425;SDS011;7812;50.072;7.036;2022-07-11T11:56:13;2.80;;;2.60;;
15425;SDS011;7812;50.072;7.036;2022-07-11T11:58:46;2.50;;;2.30;;
15425;SDS011;7812;50.072;7.036;2022-07-11T12:01:15;2.63;;;2.40;;
15425;SDS011;7812;50.072;7.036;2022-07-11T12:03:55;4.23;;;2.47;;
15425;SDS011;7812;50.072;7.036;2022-07-11T12:06:33;2.97;;;2.23;;
15425;SDS011;7812;50.072;7.036;2022-07-11T12:09:04;3.20;;;2.70;;
15425;SDS011;7812;50.072;7.036;2022-07-11T12:11:38;3.07;;;2.57;;
15425;SDS011;7812;50.072;7.036;2022-07-11T12:14:05;3.83;;;2.60;;
15425;SDS011;7812;50.072;7.036;2022-07-11T12:16:33;3.30;;;3.00;;
15425;SDS011;7812;50.072;7.036;2022-07-11T12:21:49;3.00;;;2.70;;
15425;SDS011;7812;50.072;7.036;2022-07-11T12:24:22;3.40;;;2.93;;
15425;SDS011;7812;50.072;7.036;2022-07-11T12:26:51;3.97;;;3.07;;
15425;SDS011;7812;50.072;7.036;2022-07-11T12:29:20;2.93;;;2.67;;
15425;SDS011;7812;50.072;7.036;2022-07-11T12:31:51;2.90;;;2.40;;
15425;SDS011;7812;50.072;7.036;2022-07-11T12:34:41;3.30;;;3.00;;
15425;SDS011;7812;50.072;7.036;2022-07-11T12:37:09;3.07;;;2.77;;
15425;SDS011;7812;50.072;7.036;2022-07-11T12:39:46;3.20;;;2.90;;
15425;SDS011;7812;50.072;7.036;2022-07-11T12:42:21;3.03;;;2.80;;
15425;SDS011;7812;50.072;7.036;2022-07-11T12:47:32;4.30;;;3.30;;
15425;SDS011;7812;50.072;7.036;2022-07-11T12:49:58;3.87;;;3.27;;
15425;SDS011;7812;50.072;7.036;2022-07-11T12:52:38;3.30;;;3.00;;
15425;SDS011;7812;50.072;7.036;2022-07-11T12:55:06;2.60;;;2.40;;
15425;SDS011;7812;50.072;7.036;2022-07-11T12:57:36;2.70;;;2.50;;
15425;SDS011;7812;50.072;7.036;2022-07-11T13:00:13;2.83;;;2.63;;
15425;SDS011;7812;50.072;7.036;2022-07-11T13:02:48;2.93;;;2.63;;
15425;SDS011;7812;50.072;7.036;2022-07-11T13:05:15;3.00;;;2.80;;
15425;SDS011;7812;50.072;7.036;2022-07-11T13:07:41;3.10;;;2.80;;
15425;SDS011;7812;50.072;7.036;2022-07-11T13:10:26;2.80;;;2.60;;
15425;SDS011;7812;50.072;7.036;2022-07-11T13:13:15;3.07;;;2.77;;
15425;SDS011;7812;50.072;7.036;2022-07-11T13:15:43;2.80;;;2.60;;
15425;SDS011;7812;50.072;7.036;2022-07-11T13:18:10;2.87;;;2.63;;
15425;SDS011;7812;50.072;7.036;2022-07-11T13:20:36;3.43;;;3.13;;
15425;SDS011;7812;50.072;7.036;2022-07-11T13:23:02;2.93;;;2.73;;
15425;SDS011;7812;50.072;7.036;2022-07-11T13:25:28;3.03;;;2.70;;
15425;SDS011;7812;50.072;7.036;2022-07-11T13:27:54;3.47;;;3.17;;
15425;SDS011;7812;50.072;7.036;2022-07-11T13:30:21;3.70;;;3.33;;
15425;SDS011;7812;50.072;7.036;2022-07-11T13:32:52;3.70;;;3.40;;
15425;SDS011;7812;50.072;7.036;2022-07-11T13:35:17;3.33;;;3.10;;
15425;SDS011;7812;50.072;7.036;2022-07-11T13:37:45;3.50;;;3.20;;
15425;SDS011;7812;50.072;7.036;2022-07-11T13:40:12;5.43;;;4.13;;
15425;SDS011;7812;50.072;7.036;2022-07-11T13:42:43;4.70;;;3.87;;
15425;SDS011;7812;50.072;7.036;2022-07-11T13:45:14;4.77;;;4.23;;
15425;SDS011;7812;50.072;7.036;2022-07-11T13:47:44;5.90;;;4.90;;
15425;SDS011;7812;50.072;7.036;2022-07-11T13:50:11;5.37;;;4.87;;
15425;SDS011;7812;50.072;7.036;2022-07-11T13:52:37;5.40;;;4.90;;
15425;SDS011;7812;50.072;7.036;2022-07-11T13:55:03;6.37;;;5.80;;
15425;SDS011;7812;50.072;7.036;2022-07-11T13:57:29;7.37;;;6.10;;
15425;SDS011;7812;50.072;7.036;2022-07-11T13:59:56;7.63;;;6.83;;
15425;SDS011;7812;50.072;7.036;2022-07-11T14:02:22;7.53;;;6.80;;
15425;SDS011;7812;50.072;7.036;2022-07-11T14:04:49;10.97;;;6.93;;
15425;SDS011;7812;50.072;7.036;2022-07-11T14:07:15;7.77;;;6.57;;
15425;SDS011;7812;50.072;7.036;2022-07-11T14:09:41;8.97;;;7.10;;
15425;SDS011;7812;50.072;7.036;2022-07-11T14:12:08;8.10;;;7.30;;
15425;SDS011;7812;50.072;7.036;2022-07-11T14:14:35;7.60;;;6.80;;
15425;SDS011;7812;50.072;7.036;2022-07-11T14:17:01;7.53;;;6.77;;
15425;SDS011;7812;50.072;7.036;2022-07-11T14:19:28;8.10;;;6.77;;
15425;SDS011;7812;50.072;7.036;2022-07-11T14:21:54;7.47;;;6.43;;
15425;SDS011;7812;50.072;7.036;2022-07-11T14:24:20;7.10;;;6.40;;
15425;SDS011;7812;50.072;7.036;2022-07-11T14:26:46;6.67;;;5.97;;
15425;SDS011;7812;50.072;7.036;2022-07-11T14:29:12;6.80;;;6.20;;
15425;SDS011;7812;50.072;7.036;2022-07-11T14:31:40;6.63;;;6.00;;
15425;SDS011;7812;50.072;7.036;2022-07-11T14:34:05;6.00;;;5.43;;
15425;SDS011;7812;50.072;7.036;2022-07-11T14:36:31;6.30;;;5.70;;
15425;SDS011;7812;50.072;7.036;2022-07-11T14:38:57;6.40;;;5.80;;
15425;SDS011;7812;50.072;7.036;2022-07-11T14:41:23;6.73;;;6.03;;
15425;SDS011;7812;50.072;7.036;2022-07-11T14:43:49;6.40;;;5.80;;
15425;SDS011;7812;50.072;7.036;2022-07-11T14:46:15;5.93;;;5.43;;
15425;SDS011;7812;50.072;7.036;2022-07-11T14:48:41;6.63;;;6.03;;
15425;SDS011;7812;50.072;7.036;2022-07-11T14:51:08;6.23;;;5.70;;
15425;SDS011;7812;50.072;7.036;2022-07-11T14:53:34;6.00;;;5.47;;
15425;SDS011;7812;50.072;7.036;2022-07-11T14:56:01;6.17;;;5.57;;
15425;SDS011;7812;50.072;7.036;2022-07-11T14:58:27;6.50;;;6.00;;
15425;SDS011;7812;50.072;7.036;2022-07-11T15:00:53;7.17;;;6.50;;
15425;SDS011;7812;50.072;7.036;2022-07-11T15:03:19;7.23;;;6.53;;
15425;SDS011;7812;50.072;7.036;2022-07-11T15:06:07;7.40;;;6.47;;
15425;SDS011;7812;50.072;7.036;2022-07-11T15:08:33;7.53;;;6.40;;
15425;SDS011;7812;50.072;7.036;2022-07-11T15:11:19;7.00;;;6.43;;
15425;SDS011;7812;50.072;7.036;2022-07-11T15:14:03;7.43;;;6.73;;
15425;SDS011;7812;50.072;7.036;2022-07-11T15:16:30;8.33;;;7.23;;
15425;SDS011;7812;50.072;7.036;2022-07-11T15:18:59;7.60;;;6.90;;
15425;SDS011;7812;50.072;7.036;2022-07-11T15:21:26;7.13;;;6.47;;
15425;SDS011;7812;50.072;7.036;2022-07-11T15:23:52;7.83;;;7.03;;
15425;SDS011;7812;50.072;7.036;2022-07-11T15:26:17;7.10;;;6.40;;
15425;SDS011;7812;50.072;7.036;2022-07-11T15:28:43;6.70;;;6.10;;
15425;SDS011;7812;50.072;7.036;2022-07-11T15:31:09;6.47;;;5.87;;
15425;SDS011;7812;50.072;7.036;2022-07-11T15:33:37;5.70;;;5.20;;
15425;SDS011;7812;50.072;7.036;2022-07-11T15:36:03;6.40;;;5.83;;
15425;SDS011;7812;50.072;7.036;2022-07-11T15:38:29;6.40;;;5.80;;
15425;SDS011;7812;50.072;7.036;2022-07-11T15:40:55;6.27;;;5.63;;
15425;SDS011;7812;50.072;7.036;2022-07-11T15:43:21;6.27;;;5.77;;
15425;SDS011;7812;50.072;7.036;2022-07-11T15:45:46;6.50;;;5.97;;
15425;SDS011;7812;50.072;7.036;2022-07-11T15:48:12;6.10;;;5.60;;
15425;SDS011;7812;50.072;7.036;2022-07-11T15:50:38;5.87;;;5.20;;